Spring Green, WI

12:08 PM CDT on August 29, 2014 (GMT -0500)
Tri-County Regional | Change Station
CLOSE
Current Station
Airport
Location: Lone Rock,
Elevation: 719 ft
Nearby Weather Stations

Elev 719 ft 43.21 °N, 90.18 °W | Updated 12 minutes ago

Clear
Clear
84 °F
Feels Like 89 °F
N
8
Wind Variable Wind from South

Today
High -- | Low -- °F
--% Chance of Precip.
Yesterday
High -- | Low -- °F
Precip. -- in
6:21 AM 7:40 PM
Waxing Crescent, 15% visible
Pressure 29.85 in
Visibility 10.0 miles
Clouds Clear
Heat Index 89 °F
Dew Point 71 °F
Humidity 65%
Rainfall 0.00 in
Snow Depth Not available.
UV 8 out of 12
Pollen 1.40 out of 12
Air Quality Not available.
Flu Activity Not available.
METAR KLNR 291656Z AUTO 17007KT 10SM CLR 29/22 A2988 RMK AO2 SLP108 T02890217

More Conditions Fewer Conditions

Pressure 29.85 in
Visibility 10.0 miles
Clouds Clear
Heat Index 89 °F
Dew Point 71 °F
Humidity 65%
Rainfall 0.00 in
Snow Depth Not available.
UV 8 out of 12
Pollen 1.40 out of 12
Air Quality Not available.
Flu Activity Not available.
METAR KLNR 291656Z AUTO 17007KT 10SM CLR 29/22 A2988 RMK AO2 SLP108 T02890217

More Conditions Fewer Conditions

10-Day Weather Forecast

Almanac

Astronomy

Aug. 29, 2014 Rise Set
Actual Time 6:21 AM CDT 7:40 PM CDT
Civil Twilight 5:52 AM CDT 8:10 PM CDT
Nautical Twilight 5:16 AM CDT 8:45 PM CDT
Astronomical Twilight 4:38 AM CDT 9:23 PM CDT
Moon 10:18 AM CDT 9:30 PM CDT
Length of Visible Light 14h 18m
Length of Day
13h 19m
Tomorrow will be 2m 48s shorter.
Waxing Crescent, 15% of the Moon is Illuminated
Today
Waxing Crescent
Sep 2
First Quarter
Sep 8
Full
Sep 15
Last Quarter
Sep 24
New

Today's Extremes

State Highs State Lows

Community

WunderPhotos

Upload Photos

1,748,297 photos uploaded!

Nearby

Snow Depth

Station Depth Elevation
No new snow has been reported.

Earthquake Activity

City Distance Mag. Time & Date
No recent earthquake activity has been reported nearby.
Minimum magnitude displayed is 2.5.

Coastal Water Temperatures

Place Temperature
No Stations Reporting

Nearby Weather Stations